createdAt,value
2017-12-16T00:00:28.936Z,18.40
2017-12-16T00:02:55.652Z,18.65
2017-12-16T00:05:21.633Z,17.95
2017-12-16T00:07:47.644Z,19.12
2017-12-16T00:10:13.785Z,21.00
2017-12-16T00:12:39.758Z,20.45
2017-12-16T00:15:06.483Z,19.67
2017-12-16T00:17:32.832Z,19.20
2017-12-16T00:19:59.548Z,20.48
2017-12-16T00:22:25.519Z,21.10
2017-12-16T00:24:51.707Z,19.33
2017-12-16T00:27:17.680Z,20.05
2017-12-16T00:29:43.640Z,19.67
2017-12-16T00:32:10.482Z,20.85
2017-12-16T00:34:36.484Z,20.30
2017-12-16T00:37:02.451Z,20.25
2017-12-16T00:39:30.953Z,20.87
2017-12-16T00:41:56.912Z,20.15
2017-12-16T00:44:22.884Z,20.33
2017-12-16T00:46:48.872Z,20.12
2017-12-16T00:49:14.832Z,20.20
2017-12-16T00:51:40.800Z,21.87
2017-12-16T00:54:06.802Z,20.83
2017-12-16T00:56:32.790Z,21.30
2017-12-16T00:58:58.776Z,21.70
2017-12-16T01:01:24.796Z,22.63
2017-12-16T01:03:50.832Z,22.98
2017-12-16T01:06:17.536Z,22.58
2017-12-16T01:08:43.533Z,22.20
2017-12-16T01:11:09.476Z,22.92
2017-12-16T01:13:35.476Z,23.55
2017-12-16T01:16:01.456Z,24.20
2017-12-16T01:18:28.180Z,24.40
2017-12-16T01:20:54.190Z,24.10
2017-12-16T01:23:20.228Z,23.40
2017-12-16T01:25:46.196Z,26.08
2017-12-16T01:28:12.181Z,24.60
2017-12-16T01:30:38.922Z,25.48
2017-12-16T01:33:05.629Z,24.08
2017-12-16T01:35:44.063Z,26.65
2017-12-16T01:41:15.056Z,24.90
2017-12-16T01:43:41.056Z,25.75
2017-12-16T01:46:07.780Z,24.98
2017-12-16T01:48:33.738Z,24.30
2017-12-16T01:50:59.728Z,25.30
2017-12-16T01:53:32.913Z,25.90
2017-12-16T01:56:05.872Z,24.92
2017-12-16T01:58:31.865Z,25.30
2017-12-16T02:00:58.109Z,25.17
2017-12-16T02:03:24.120Z,26.15
2017-12-16T02:05:50.108Z,24.27
2017-12-16T02:08:16.840Z,24.80
2017-12-16T02:10:43.549Z,23.80
2017-12-16T02:13:09.508Z,24.23
2017-12-16T02:15:37.048Z,24.12
2017-12-16T02:18:03.012Z,24.00
2017-12-16T02:20:28.977Z,23.83
2017-12-16T02:22:54.972Z,22.95
2017-12-16T02:25:20.933Z,23.55
2017-12-16T02:27:46.932Z,23.42
2017-12-16T02:30:13.077Z,24.12
2017-12-16T02:32:39.036Z,23.42
2017-12-16T02:35:05.013Z,25.12
2017-12-16T02:37:32.561Z,25.42
2017-12-16T02:39:58.537Z,25.40
2017-12-16T02:42:24.505Z,25.33
2017-12-16T02:44:50.476Z,24.02
2017-12-16T02:47:16.446Z,25.83
2017-12-16T02:49:42.396Z,26.53
2017-12-16T02:52:08.408Z,25.08
2017-12-16T02:54:34.362Z,24.65
2017-12-16T02:57:00.329Z,27.40
2017-12-16T02:59:26.675Z,25.92
2017-12-16T03:01:53.368Z,26.23
2017-12-16T03:04:19.345Z,27.50
2017-12-16T03:06:46.066Z,27.02
2017-12-16T03:09:12.049Z,26.98
2017-12-16T03:11:38.015Z,27.60
2017-12-16T03:14:04.083Z,27.65
2017-12-16T03:16:29.996Z,28.75
2017-12-16T03:18:55.945Z,27.40
2017-12-16T03:21:22.106Z,27.95
2017-12-16T03:23:48.096Z,27.75
2017-12-16T03:26:14.060Z,26.63
2017-12-16T03:28:40.792Z,27.37
2017-12-16T03:31:06.753Z,27.53
2017-12-16T03:33:32.721Z,27.40
2017-12-16T03:35:58.945Z,27.30
2017-12-16T03:38:25.208Z,27.70
2017-12-16T03:40:51.930Z,27.30
2017-12-16T03:43:18.669Z,26.65
2017-12-16T03:45:44.656Z,26.08
2017-12-16T03:48:10.628Z,26.15
2017-12-16T03:50:37.357Z,25.40
2017-12-16T03:53:04.068Z,24.15
2017-12-16T03:55:30.033Z,24.63
2017-12-16T03:57:56.005Z,23.87
2017-12-16T04:00:21.959Z,22.98
2017-12-16T04:02:48.705Z,25.05
2017-12-16T04:05:15.466Z,23.62
2017-12-16T04:07:41.363Z,23.53
2017-12-16T04:10:07.372Z,21.65
2017-12-16T04:12:33.327Z,23.73
2017-12-16T04:14:59.312Z,22.60
2017-12-16T04:17:25.262Z,22.60
2017-12-16T04:19:51.224Z,21.50
2017-12-16T04:22:17.225Z,21.83
2017-12-16T04:24:43.207Z,21.23
2017-12-16T04:27:09.904Z,21.50
2017-12-16T04:29:35.892Z,20.70
2017-12-16T04:32:01.865Z,19.87
2017-12-16T04:34:27.848Z,20.37
2017-12-16T04:36:54.016Z,20.30
2017-12-16T04:39:20.762Z,20.92
2017-12-16T04:41:46.720Z,20.02
2017-12-16T04:44:12.863Z,20.58
2017-12-16T04:46:38.866Z,21.08
2017-12-16T04:49:04.859Z,19.83
2017-12-16T04:51:31.800Z,20.98
2017-12-16T04:53:57.784Z,20.65
2017-12-16T04:56:23.760Z,20.13
2017-12-16T04:58:50.468Z,20.00
2017-12-16T05:01:16.468Z,19.62
2017-12-16T05:03:42.435Z,18.67
2017-12-16T05:06:09.172Z,19.63
2017-12-16T05:08:35.872Z,21.17
2017-12-16T05:11:01.824Z,19.35
2017-12-16T05:13:28.576Z,19.70
2017-12-16T05:15:54.556Z,20.25
2017-12-16T05:18:20.531Z,19.48
2017-12-16T05:20:47.340Z,19.67
2017-12-16T05:23:13.316Z,19.62
2017-12-16T05:25:39.269Z,20.13
2017-12-16T05:28:06.008Z,19.12
2017-12-16T05:30:31.969Z,19.58
2017-12-16T05:32:57.968Z,20.17
2017-12-16T05:35:24.709Z,20.37
2017-12-16T05:37:51.409Z,20.00
2017-12-16T05:40:17.418Z,19.67
2017-12-16T05:42:43.408Z,19.73
2017-12-16T05:45:10.108Z,20.43
2017-12-16T05:47:36.101Z,19.02
2017-12-16T05:50:02.073Z,19.00
2017-12-16T05:52:28.832Z,19.37
2017-12-16T05:54:55.521Z,18.90
2017-12-16T05:57:21.777Z,18.25
2017-12-16T05:59:48.481Z,18.73
2017-12-16T06:02:14.443Z,17.95
2017-12-16T06:04:41.380Z,19.00
2017-12-16T06:07:08.104Z,18.20
2017-12-16T06:09:34.061Z,19.00
2017-12-16T06:12:00.041Z,19.33
2017-12-16T06:14:25.988Z,19.52
2017-12-16T06:16:52.738Z,18.25
2017-12-16T06:19:19.420Z,18.50
2017-12-16T06:21:45.381Z,19.02
2017-12-16T06:24:12.118Z,18.50
2017-12-16T06:26:38.084Z,18.95
2017-12-16T06:29:04.087Z,17.43
2017-12-16T06:31:30.083Z,18.92
2017-12-16T06:33:56.784Z,18.10
2017-12-16T06:36:22.754Z,18.45
2017-12-16T06:38:49.470Z,18.10
2017-12-16T06:41:15.440Z,17.62
2017-12-16T06:43:41.392Z,18.87
2017-12-16T06:46:07.364Z,18.42
2017-12-16T06:48:34.087Z,18.77
2017-12-16T06:51:00.800Z,19.00
2017-12-16T06:53:26.988Z,18.50
2017-12-16T06:55:52.945Z,19.45
2017-12-16T06:58:18.932Z,19.08
2017-12-16T07:00:44.910Z,18.47
2017-12-16T07:03:10.868Z,18.77
2017-12-16T07:05:36.824Z,18.95
2017-12-16T07:08:02.832Z,18.55
2017-12-16T07:10:28.821Z,18.70
2017-12-16T07:12:54.800Z,19.13
2017-12-16T07:15:21.040Z,20.10
2017-12-16T07:17:47.014Z,18.50
2017-12-16T07:20:12.996Z,18.97
2017-12-16T07:22:39.931Z,19.27
2017-12-16T07:25:06.644Z,18.55
2017-12-16T07:27:32.623Z,19.20
2017-12-16T07:29:58.612Z,19.37
2017-12-16T07:32:25.340Z,19.42
2017-12-16T07:34:51.311Z,17.87
2017-12-16T07:37:17.592Z,17.77
2017-12-16T07:39:43.560Z,18.48
2017-12-16T07:42:09.512Z,17.30
2017-12-16T07:44:35.516Z,17.40
2017-12-16T07:47:01.483Z,17.30
2017-12-16T07:49:27.452Z,16.90
2017-12-16T07:51:53.431Z,16.37
2017-12-16T07:54:20.136Z,17.27
2017-12-16T07:56:46.161Z,16.40
2017-12-16T07:59:12.134Z,15.10
2017-12-16T08:01:38.096Z,15.45
2017-12-16T08:04:04.089Z,15.18
2017-12-16T08:06:30.036Z,14.97
2017-12-16T08:08:56.009Z,14.80
2017-12-16T08:11:22.759Z,14.20
2017-12-16T08:13:48.723Z,14.20
2017-12-16T08:16:14.680Z,13.77
2017-12-16T08:18:41.435Z,15.88
2017-12-16T08:21:08.144Z,15.43
2017-12-16T08:23:34.132Z,15.88
2017-12-16T08:26:00.500Z,14.73
2017-12-16T08:28:26.440Z,16.35
2017-12-16T08:30:53.172Z,16.85
2017-12-16T08:33:19.147Z,15.57
2017-12-16T08:35:45.127Z,16.75
2017-12-16T08:38:11.819Z,17.60
2017-12-16T08:40:37.804Z,16.55
2017-12-16T08:43:03.763Z,17.00
2017-12-16T08:45:29.746Z,17.10
2017-12-16T08:47:55.741Z,16.43
2017-12-16T08:50:22.456Z,16.15
2017-12-16T08:52:49.176Z,16.77
2017-12-16T08:55:15.157Z,16.25
2017-12-16T08:57:41.132Z,15.97
2017-12-16T09:00:07.118Z,16.45
2017-12-16T09:02:33.105Z,15.85
2017-12-16T09:04:59.808Z,17.10
2017-12-16T09:07:25.948Z,15.17
2017-12-16T09:09:51.904Z,15.50
2017-12-16T09:12:17.877Z,14.60
2017-12-16T09:14:43.865Z,14.27
2017-12-16T09:17:09.815Z,13.55
2017-12-16T09:19:35.776Z,13.50
2017-12-16T09:22:02.517Z,13.18
2017-12-16T09:24:29.236Z,12.37
2017-12-16T09:26:55.233Z,13.50
2017-12-16T09:29:21.228Z,13.75
2017-12-16T09:31:47.213Z,11.30
2017-12-16T09:34:13.916Z,11.60
2017-12-16T09:36:39.883Z,12.40
2017-12-16T09:39:05.888Z,10.80
2017-12-16T09:41:32.672Z,10.82
2017-12-16T09:43:58.848Z,11.10
2017-12-16T09:46:24.799Z,11.00
2017-12-16T09:48:51.125Z,10.60
2017-12-16T09:51:17.116Z,11.12
2017-12-16T09:53:43.068Z,10.63
2017-12-16T09:56:09.033Z,9.65
2017-12-16T09:58:35.026Z,9.35
2017-12-16T10:01:00.995Z,8.40
2017-12-16T10:03:26.976Z,8.60
2017-12-16T10:05:53.000Z,8.10
2017-12-16T10:08:18.981Z,8.70
2017-12-16T10:10:45.701Z,8.07
2017-12-16T10:13:11.697Z,8.52
2017-12-16T10:15:37.663Z,7.50
2017-12-16T10:18:04.410Z,8.35
2017-12-16T10:20:30.377Z,9.30
2017-12-16T10:22:56.599Z,7.47
2017-12-16T10:25:22.668Z,6.87
2017-12-16T10:27:49.389Z,7.03
2017-12-16T10:30:15.402Z,6.55
2017-12-16T10:32:41.635Z,6.20
2017-12-16T10:35:07.619Z,6.70
2017-12-16T10:37:33.585Z,6.00
2017-12-16T10:39:59.573Z,6.10
2017-12-16T10:42:25.552Z,6.30
2017-12-16T10:44:51.533Z,5.60
2017-12-16T10:47:17.773Z,5.70
2017-12-16T10:49:43.781Z,5.87
2017-12-16T10:52:09.790Z,5.70
2017-12-16T10:54:35.832Z,5.50
2017-12-16T10:57:01.801Z,6.10
2017-12-16T10:59:27.860Z,42.77
2017-12-16T11:01:53.833Z,16.40
2017-12-16T11:04:19.868Z,5.72
2017-12-16T11:06:45.833Z,5.00
2017-12-16T11:09:12.797Z,4.87
2017-12-16T11:11:39.528Z,4.57
2017-12-16T11:14:05.492Z,4.07
2017-12-16T11:16:31.502Z,4.70
2017-12-16T11:18:57.483Z,4.40
2017-12-16T11:21:24.224Z,5.07
2017-12-16T11:23:50.236Z,4.40
2017-12-16T11:26:16.216Z,4.18
2017-12-16T11:28:42.205Z,4.55
2017-12-16T11:31:08.936Z,4.53
2017-12-16T11:33:34.957Z,4.22
2017-12-16T11:36:00.912Z,4.50
2017-12-16T11:38:26.952Z,4.10
2017-12-16T11:40:53.636Z,5.20
2017-12-16T11:43:19.591Z,4.80
2017-12-16T11:45:45.587Z,3.75
2017-12-16T11:48:12.303Z,3.40
2017-12-16T11:50:38.280Z,3.17
2017-12-16T11:53:04.268Z,3.23
2017-12-16T11:55:30.984Z,3.85
2017-12-16T11:57:56.936Z,3.60
2017-12-16T12:00:23.695Z,3.60
2017-12-16T12:02:49.675Z,2.80
2017-12-16T12:05:15.649Z,29.65
2017-12-16T12:07:41.951Z,39.33
2017-12-16T12:10:08.712Z,15.67
2017-12-16T12:12:41.963Z,3.78
2017-12-16T12:15:07.917Z,3.08
2017-12-16T12:17:33.873Z,3.37
2017-12-16T12:19:59.876Z,2.85
2017-12-16T12:22:25.831Z,3.20
2017-12-16T12:24:51.806Z,2.70
2017-12-16T12:27:17.785Z,3.22
2017-12-16T12:29:43.743Z,2.87
2017-12-16T12:32:09.732Z,3.10
2017-12-16T12:34:35.721Z,2.90
2017-12-16T12:37:01.712Z,3.10
2017-12-16T12:39:27.693Z,2.65
2017-12-16T12:41:55.709Z,2.28
2017-12-16T12:44:21.704Z,2.10
2017-12-16T12:46:48.730Z,2.70
2017-12-16T12:49:14.691Z,3.10
2017-12-16T12:51:40.659Z,2.53
2017-12-16T12:54:06.681Z,2.60
2017-12-16T12:56:32.656Z,2.20
2017-12-16T12:58:58.612Z,2.30
2017-12-16T13:01:24.648Z,2.50
2017-12-16T13:03:50.632Z,2.00
2017-12-16T13:06:16.592Z,1.90
2017-12-16T13:08:42.568Z,2.00
2017-12-16T13:11:08.541Z,2.07
2017-12-16T13:13:34.552Z,2.00
2017-12-16T13:16:00.549Z,1.90
2017-12-16T13:18:26.528Z,2.03
2017-12-16T13:20:53.266Z,2.20
2017-12-16T13:23:19.984Z,4.77
2017-12-16T13:25:45.956Z,10.38
2017-12-16T13:28:11.940Z,3.50
2017-12-16T13:30:38.661Z,2.00
2017-12-16T13:33:04.633Z,2.30
2017-12-16T13:35:30.654Z,2.20
2017-12-16T13:37:56.618Z,2.10
2017-12-16T13:40:22.591Z,2.10
2017-12-16T13:42:48.587Z,2.62
2017-12-16T13:45:15.302Z,2.20
2017-12-16T13:47:41.320Z,2.12
2017-12-16T13:50:07.584Z,1.98
2017-12-16T13:52:34.334Z,2.10
2017-12-16T13:55:00.312Z,2.20
2017-12-16T13:57:26.311Z,2.10
2017-12-16T13:59:52.293Z,2.25
2017-12-16T14:02:18.294Z,2.30
2017-12-16T14:04:45.027Z,2.20
2017-12-16T14:07:11.025Z,2.20
2017-12-16T14:09:37.090Z,2.40
2017-12-16T14:12:03.020Z,3.40
2017-12-16T14:14:29.031Z,2.70
2017-12-16T14:16:55.741Z,2.90
2017-12-16T14:19:21.731Z,23.27
2017-12-16T14:21:47.736Z,6.00
2017-12-16T14:24:13.714Z,2.00
2017-12-16T14:26:39.712Z,2.10
2017-12-16T14:29:05.702Z,2.10
2017-12-16T14:31:31.668Z,2.83
2017-12-16T14:33:57.645Z,2.90
2017-12-16T14:36:23.644Z,2.53
2017-12-16T14:38:50.358Z,2.92
2017-12-16T14:41:16.316Z,3.60
2017-12-16T14:43:42.316Z,4.20
2017-12-16T14:46:09.037Z,3.37
2017-12-16T14:48:35.044Z,2.92
2017-12-16T14:51:01.019Z,3.20
2017-12-16T14:53:27.277Z,3.10
2017-12-16T14:55:53.249Z,3.30
2017-12-16T14:58:19.973Z,2.90
2017-12-16T15:00:45.948Z,2.87
2017-12-16T15:03:11.936Z,2.97
2017-12-16T15:05:38.857Z,3.17
2017-12-16T15:08:04.833Z,3.15
2017-12-16T15:10:30.820Z,2.95
2017-12-16T15:12:57.536Z,3.53
2017-12-16T15:15:23.568Z,2.80
2017-12-16T15:17:49.547Z,2.75
2017-12-16T15:20:15.548Z,2.70
2017-12-16T15:22:41.524Z,2.87
2017-12-16T15:25:07.479Z,3.03
2017-12-16T15:27:34.390Z,2.50
2017-12-16T15:30:00.375Z,2.60
2017-12-16T15:32:26.340Z,2.60
2017-12-16T15:34:53.056Z,2.45
2017-12-16T15:37:19.029Z,3.10
2017-12-16T15:39:44.998Z,2.40
2017-12-16T15:42:11.245Z,2.47
2017-12-16T15:44:37.220Z,2.60
2017-12-16T15:47:03.201Z,2.80
2017-12-16T15:49:30.049Z,2.78
2017-12-16T15:51:56.025Z,2.95
2017-12-16T15:54:22.014Z,2.78
2017-12-16T15:56:47.985Z,2.85
2017-12-16T15:59:15.437Z,3.20
2017-12-16T16:01:41.419Z,2.85
2017-12-16T16:04:07.553Z,2.70
2017-12-16T16:06:33.524Z,2.85
2017-12-16T16:09:00.251Z,2.58
2017-12-16T16:11:26.247Z,2.42
2017-12-16T16:13:52.240Z,3.30
2017-12-16T16:16:18.202Z,2.90
2017-12-16T16:18:44.221Z,2.83
2017-12-16T16:21:10.196Z,2.62
2017-12-16T16:23:36.392Z,2.50
2017-12-16T16:26:03.129Z,2.50
2017-12-16T16:28:29.848Z,2.55
2017-12-16T16:30:55.831Z,2.50
2017-12-16T16:33:21.792Z,2.30
2017-12-16T16:35:49.240Z,3.00
2017-12-16T16:38:15.245Z,2.70
2017-12-16T16:40:41.230Z,2.47
2017-12-16T16:43:07.195Z,2.60
2017-12-16T16:45:33.181Z,2.70
2017-12-16T16:47:59.152Z,2.87
2017-12-16T16:50:25.909Z,2.22
2017-12-16T16:52:52.240Z,2.90
2017-12-16T16:55:18.244Z,3.37
2017-12-16T16:57:44.230Z,2.75
2017-12-16T17:00:10.218Z,2.90
2017-12-16T17:02:36.941Z,2.72
2017-12-16T17:05:02.901Z,2.80
2017-12-16T17:07:28.904Z,2.90
2017-12-16T17:09:55.625Z,2.80
2017-12-16T17:12:21.596Z,2.85
2017-12-16T17:14:47.976Z,2.42
2017-12-16T17:17:14.706Z,2.60
2017-12-16T17:19:40.795Z,3.00
2017-12-16T17:22:08.305Z,2.80
2017-12-16T17:24:35.010Z,3.23
2017-12-16T17:27:01.005Z,2.90
2017-12-16T17:29:26.984Z,3.10
2017-12-16T17:31:53.713Z,3.00
2017-12-16T17:34:19.695Z,2.80
2017-12-16T17:36:45.672Z,3.25
2017-12-16T17:39:12.373Z,3.22
2017-12-16T17:41:38.382Z,3.25
2017-12-16T17:44:04.330Z,3.10
2017-12-16T17:46:30.310Z,3.00
2017-12-16T17:48:56.288Z,3.40
2017-12-16T17:51:23.033Z,3.00
2017-12-16T17:53:49.756Z,2.90
2017-12-16T17:56:15.753Z,3.53
2017-12-16T17:58:41.736Z,3.20
2017-12-16T18:01:07.769Z,2.97
2017-12-16T18:03:33.744Z,3.47
2017-12-16T18:05:59.714Z,3.60
2017-12-16T18:08:26.608Z,2.97
2017-12-16T18:10:52.593Z,3.30
2017-12-16T18:13:18.553Z,3.25
2017-12-16T18:15:46.117Z,3.80
2017-12-16T18:18:12.848Z,4.20
2017-12-16T18:20:38.820Z,3.60
2017-12-16T18:23:04.788Z,3.30
2017-12-16T18:25:30.774Z,3.55
2017-12-16T18:27:56.820Z,3.40
2017-12-16T18:30:22.793Z,3.40
2017-12-16T18:32:48.776Z,3.50
2017-12-16T18:35:14.732Z,3.37
2017-12-16T18:37:40.706Z,3.40
2017-12-16T18:40:06.705Z,3.35
2017-12-16T18:42:32.676Z,3.35
2017-12-16T18:45:06.680Z,3.60
2017-12-16T18:47:33.420Z,4.33
2017-12-16T18:50:00.140Z,3.30
2017-12-16T18:52:26.125Z,4.03
2017-12-16T18:54:52.092Z,3.30
2017-12-16T18:57:18.077Z,3.50
2017-12-16T19:02:18.072Z,3.70
2017-12-16T19:04:44.050Z,4.70
2017-12-16T19:07:10.020Z,3.25
2017-12-16T19:09:36.015Z,3.67
2017-12-16T19:12:02.732Z,3.70
2017-12-16T19:14:28.696Z,3.20
2017-12-16T19:16:54.718Z,3.40
2017-12-16T19:19:20.705Z,3.28
2017-12-16T19:21:46.689Z,2.62
2017-12-16T19:24:12.861Z,2.80
2017-12-16T19:26:39.576Z,2.83
2017-12-16T19:29:05.553Z,2.70
2017-12-16T19:31:31.547Z,2.80
2017-12-16T19:33:58.292Z,2.67
2017-12-16T19:36:24.995Z,3.10
2017-12-16T19:38:50.996Z,2.67
2017-12-16T19:41:17.013Z,3.33
2017-12-16T19:43:42.977Z,2.67
2017-12-16T19:46:08.962Z,3.00
2017-12-16T19:48:34.925Z,3.10
2017-12-16T19:51:01.044Z,2.97
2017-12-16T19:53:27.034Z,3.50
2017-12-16T19:55:53.017Z,3.05
2017-12-16T19:58:19.015Z,3.20
2017-12-16T20:00:45.973Z,3.53
2017-12-16T20:03:12.730Z,3.07
2017-12-16T20:05:38.708Z,3.10
2017-12-16T20:08:04.720Z,3.03
2017-12-16T20:10:30.704Z,3.10
2017-12-16T20:12:56.712Z,3.20
2017-12-16T20:15:22.730Z,3.05
2017-12-16T20:17:48.716Z,2.62
2017-12-16T20:20:14.708Z,5.30
2017-12-16T20:22:40.681Z,4.00
2017-12-16T20:25:07.415Z,3.00
2017-12-16T20:27:41.020Z,2.80
2017-12-16T20:30:08.065Z,2.80
2017-12-16T20:32:34.789Z,2.97
2017-12-16T20:35:00.794Z,3.33
2017-12-16T20:37:26.775Z,3.15
2017-12-16T20:39:52.748Z,3.20
2017-12-16T20:42:18.725Z,3.17
2017-12-16T20:44:44.712Z,3.10
2017-12-16T20:47:11.432Z,2.90
2017-12-16T20:49:37.412Z,2.90
2017-12-16T20:52:03.401Z,2.87
2017-12-16T20:54:29.417Z,2.58
2017-12-16T20:56:56.164Z,2.70
2017-12-16T20:59:22.880Z,2.50
2017-12-16T21:01:48.869Z,2.72
2017-12-16T21:04:15.036Z,2.70
2017-12-16T21:06:41.767Z,2.80
2017-12-16T21:09:07.740Z,2.70
2017-12-16T21:11:33.711Z,2.83
2017-12-16T21:13:59.704Z,2.50
2017-12-16T21:16:25.705Z,2.87
2017-12-16T21:18:51.685Z,2.80
2017-12-16T21:21:18.402Z,3.03
2017-12-16T21:23:44.416Z,3.72
2017-12-16T21:26:10.381Z,3.30
2017-12-16T21:28:36.380Z,3.10
2017-12-16T21:31:02.352Z,3.35
2017-12-16T21:33:28.335Z,2.87
2017-12-16T21:35:55.076Z,3.00
2017-12-16T21:38:21.803Z,3.10
2017-12-16T21:40:48.512Z,3.10
2017-12-16T21:43:15.388Z,2.78
2017-12-16T21:45:42.106Z,3.00
2017-12-16T21:48:08.116Z,3.10
2017-12-16T21:50:34.384Z,3.20
2017-12-16T21:53:01.075Z,3.10
2017-12-16T21:55:27.058Z,3.33
2017-12-16T21:57:53.071Z,3.03
2017-12-16T22:00:19.805Z,2.72
2017-12-16T22:02:46.895Z,3.00
2017-12-16T22:05:12.924Z,3.08
2017-12-16T22:07:38.910Z,3.90
2017-12-16T22:10:04.886Z,3.60
2017-12-16T22:12:30.889Z,3.80
2017-12-16T22:14:56.847Z,3.90
2017-12-16T22:17:22.827Z,3.92
2017-12-16T22:19:48.846Z,3.50
2017-12-16T22:22:14.828Z,4.07
2017-12-16T22:24:41.549Z,3.95
2017-12-16T22:27:07.534Z,4.03
2017-12-16T22:29:33.524Z,6.03
2017-12-16T22:31:59.493Z,4.15
2017-12-16T22:34:25.472Z,4.20
2017-12-16T22:36:51.760Z,4.22
2017-12-16T22:39:17.747Z,5.43
2017-12-16T22:41:43.735Z,7.07
2017-12-16T22:44:09.733Z,5.55
2017-12-16T22:46:36.458Z,4.60
2017-12-16T22:49:02.488Z,4.50
2017-12-16T22:51:28.432Z,4.72
2017-12-16T22:53:54.462Z,4.80
2017-12-16T22:56:20.421Z,4.10
2017-12-16T22:58:46.423Z,4.12
2017-12-16T23:01:12.400Z,4.50
2017-12-16T23:03:39.130Z,3.90
2017-12-16T23:06:05.105Z,4.17
2017-12-16T23:08:31.390Z,4.07
2017-12-16T23:10:58.108Z,4.15
2017-12-16T23:13:24.075Z,4.10
2017-12-16T23:15:50.080Z,4.30
2017-12-16T23:18:16.796Z,4.00
2017-12-16T23:20:42.768Z,4.00
2017-12-16T23:23:08.760Z,3.60
2017-12-16T23:25:34.776Z,3.90
2017-12-16T23:28:01.473Z,3.53
2017-12-16T23:30:27.479Z,3.97
2017-12-16T23:32:53.460Z,3.40
2017-12-16T23:35:20.156Z,3.63
2017-12-16T23:37:46.173Z,3.40
2017-12-16T23:40:12.132Z,3.90
2017-12-16T23:42:38.109Z,4.00
2017-12-16T23:45:04.302Z,3.37
2017-12-16T23:47:30.300Z,3.63
2017-12-16T23:49:56.265Z,4.40
2017-12-16T23:52:22.248Z,4.20
2017-12-16T23:54:48.957Z,4.20
2017-12-16T23:57:14.932Z,4.40
2017-12-16T23:59:41.842Z,4.67
